Terminal Aerodrome Forecast
Issued by NWS Riverton, WY

Home | Current Version | Previous Version | Text Only | Print | Product List | Glossary On
Versions: 1 2 3 4 5 6 7 8 9 10 11 12 13
000
FTUS45 KRIW 260530
TAFRIW
TAF
KRIW 260530Z 2606/2706 30007KT P6SM SKC
     FM261500 VRB05KT P6SM SKC
     FM262300 VRB10G16KT P6SM VCSH SCT120
     FM270200 01011KT P6SM SCT120=

USA.gov is the U.S. government's official web portal to all federal, state and local government web resources and services.